createdAt,value
2023-10-24T00:00:41.277Z,37.49
2023-10-24T00:03:11.760Z,37.47
2023-10-24T00:05:39.414Z,37.43
2023-10-24T00:08:10.036Z,37.37
2023-10-24T00:10:37.773Z,37.50
2023-10-24T00:13:05.260Z,37.16
2023-10-24T00:15:32.939Z,37.66
2023-10-24T00:18:00.622Z,37.59
2023-10-24T00:20:28.327Z,37.34
2023-10-24T00:22:55.689Z,37.21
2023-10-24T00:25:23.408Z,37.21
2023-10-24T00:27:50.947Z,37.08
2023-10-24T00:30:18.649Z,37.24
2023-10-24T00:32:50.892Z,37.12
2023-10-24T00:35:19.134Z,37.07
2023-10-24T00:37:46.788Z,36.73
2023-10-24T00:40:14.361Z,37.05
2023-10-24T00:42:41.847Z,37.40
2023-10-24T00:45:10.845Z,37.13
2023-10-24T00:47:41.335Z,37.30
2023-10-24T00:50:09.518Z,37.46
2023-10-24T00:52:37.982Z,37.15
2023-10-24T00:55:09.075Z,37.07
2023-10-24T00:57:37.432Z,37.42
2023-10-24T01:00:05.362Z,37.10
2023-10-24T01:02:33.227Z,37.24
2023-10-24T01:05:01.805Z,37.26
2023-10-24T01:07:29.538Z,37.31
2023-10-24T01:09:57.048Z,37.38
2023-10-24T01:12:24.568Z,37.45
2023-10-24T01:14:52.193Z,37.17
2023-10-24T01:17:19.830Z,37.22
2023-10-24T01:19:48.635Z,37.08
2023-10-24T01:22:18.997Z,36.80
2023-10-24T01:24:49.117Z,36.96
2023-10-24T01:27:17.626Z,37.07
2023-10-24T01:29:45.129Z,37.39
2023-10-24T01:32:12.864Z,37.05
2023-10-24T01:34:40.699Z,37.18
2023-10-24T01:37:08.377Z,37.00
2023-10-24T01:39:36.096Z,37.29
2023-10-24T01:42:03.720Z,36.94
2023-10-24T01:44:31.381Z,36.90
2023-10-24T01:46:59.461Z,36.93
2023-10-24T01:49:27.131Z,37.20
2023-10-24T01:51:54.596Z,36.59
2023-10-24T01:54:22.239Z,36.90
2023-10-24T01:56:49.807Z,37.06
2023-10-24T01:59:17.271Z,37.02
2023-10-24T02:01:44.831Z,36.70
2023-10-24T02:04:15.160Z,36.83
2023-10-24T02:06:42.934Z,36.98
2023-10-24T02:09:12.365Z,36.61
2023-10-24T02:11:39.766Z,37.08
2023-10-24T02:14:07.399Z,36.79
2023-10-24T02:16:37.146Z,36.48
2023-10-24T02:19:05.902Z,36.71
2023-10-24T02:21:33.445Z,36.83
2023-10-24T02:24:01.118Z,36.58
2023-10-24T02:26:29.707Z,36.56
2023-10-24T02:28:58.302Z,36.50
2023-10-24T02:31:25.945Z,36.65
2023-10-24T02:33:54.634Z,36.49
2023-10-24T02:36:22.345Z,36.72
2023-10-24T02:38:50.289Z,36.80
2023-10-24T02:41:17.709Z,36.77
2023-10-24T02:43:45.439Z,36.84
2023-10-24T02:46:13.756Z,36.69
2023-10-24T02:48:41.526Z,36.79
2023-10-24T02:51:09.105Z,37.06
2023-10-24T02:53:36.746Z,37.16
2023-10-24T02:56:04.571Z,36.96
2023-10-24T02:58:32.533Z,37.69
2023-10-24T03:01:06.908Z,37.60
2023-10-24T03:03:34.752Z,38.61
2023-10-24T03:06:02.535Z,38.84
2023-10-24T03:08:30.158Z,39.12
2023-10-24T03:10:58.774Z,38.39
2023-10-24T03:13:26.334Z,39.37
2023-10-24T03:15:55.956Z,39.60
2023-10-24T03:18:26.369Z,39.79
2023-10-24T03:20:54.059Z,39.89
2023-10-24T03:23:21.460Z,39.23
2023-10-24T03:25:49.251Z,38.67
2023-10-24T03:28:16.907Z,37.22
2023-10-24T03:30:44.745Z,37.22
2023-10-24T03:33:12.397Z,37.02
2023-10-24T03:35:41.247Z,37.07
2023-10-24T03:38:09.056Z,36.80
2023-10-24T03:40:39.497Z,36.82
2023-10-24T03:43:09.510Z,37.11
2023-10-24T03:45:39.287Z,37.03
2023-10-24T03:48:07.072Z,37.74
2023-10-24T03:50:38.489Z,38.60
2023-10-24T03:53:06.846Z,38.91
2023-10-24T03:55:35.345Z,37.73
2023-10-24T03:58:04.081Z,37.32
2023-10-24T04:00:31.724Z,37.29
2023-10-24T04:03:01.753Z,37.27
2023-10-24T04:05:35.252Z,37.86
2023-10-24T04:08:04.383Z,38.10
2023-10-24T04:10:34.697Z,37.96
2023-10-24T04:13:02.962Z,37.33
2023-10-24T04:15:32.639Z,38.39
2023-10-24T04:18:00.302Z,38.62
2023-10-24T04:20:27.899Z,38.60
2023-10-24T04:22:55.545Z,38.71
2023-10-24T04:25:23.385Z,38.54
2023-10-24T04:27:51.124Z,38.69
2023-10-24T04:30:19.803Z,38.54
2023-10-24T04:32:49.728Z,38.39
2023-10-24T04:35:17.141Z,37.58
2023-10-24T04:37:47.563Z,37.34
2023-10-24T04:40:15.581Z,37.09
2023-10-24T04:42:43.309Z,37.49
2023-10-24T04:45:10.878Z,37.73
2023-10-24T04:47:38.410Z,37.82
2023-10-24T04:50:06.933Z,37.92
2023-10-24T04:52:34.567Z,37.89
2023-10-24T04:55:02.183Z,37.26
2023-10-24T04:57:32.068Z,37.03
2023-10-24T05:00:00.131Z,37.06
2023-10-24T05:02:28.694Z,37.44
2023-10-24T05:04:59.176Z,37.71
2023-10-24T05:07:29.108Z,37.75
2023-10-24T05:09:56.421Z,37.79
2023-10-24T05:12:24.392Z,37.51
2023-10-24T05:14:51.862Z,37.20
2023-10-24T05:17:21.772Z,37.17
2023-10-24T05:19:49.589Z,38.03
2023-10-24T05:22:17.150Z,37.85
2023-10-24T05:24:44.732Z,38.11
2023-10-24T05:27:12.319Z,38.93
2023-10-24T05:29:44.141Z,39.27
2023-10-24T05:32:12.102Z,39.17
2023-10-24T05:34:39.720Z,39.20
2023-10-24T05:37:07.468Z,39.07
2023-10-24T05:39:34.882Z,39.36
2023-10-24T05:42:02.458Z,39.28
2023-10-24T05:44:30.146Z,39.33
2023-10-24T05:47:00.338Z,39.50
2023-10-24T05:49:28.683Z,39.48
2023-10-24T05:51:56.275Z,39.47
2023-10-24T05:54:23.854Z,39.65
2023-10-24T05:56:54.133Z,39.85
2023-10-24T05:59:23.815Z,39.64
2023-10-24T06:01:51.595Z,39.76
2023-10-24T06:04:21.595Z,39.72
2023-10-24T06:06:51.553Z,39.97
2023-10-24T06:09:21.607Z,39.83
2023-10-24T06:11:53.451Z,39.84
2023-10-24T06:14:23.539Z,39.76
2023-10-24T06:16:50.950Z,39.90
2023-10-24T06:19:18.638Z,39.84
2023-10-24T06:21:46.084Z,39.09
2023-10-24T06:24:13.577Z,39.63
2023-10-24T06:26:41.267Z,40.00
2023-10-24T06:29:08.659Z,39.55
2023-10-24T06:31:36.232Z,39.59
2023-10-24T06:34:04.692Z,39.50
2023-10-24T06:36:32.220Z,39.42
2023-10-24T06:39:02.635Z,40.10
2023-10-24T06:41:30.166Z,40.10
2023-10-24T06:43:57.661Z,38.87
2023-10-24T06:46:25.570Z,39.50
2023-10-24T06:48:54.112Z,39.09
2023-10-24T06:51:21.662Z,39.03
2023-10-24T06:53:49.093Z,39.42
2023-10-24T06:56:18.877Z,39.75
2023-10-24T06:58:48.375Z,39.55
2023-10-24T07:01:15.867Z,39.63
2023-10-24T07:03:44.685Z,39.57
2023-10-24T07:06:12.174Z,39.53
2023-10-24T07:08:41.384Z,39.37
2023-10-24T07:11:09.367Z,39.38
2023-10-24T07:13:38.516Z,39.38
2023-10-24T07:16:16.941Z,39.29
2023-10-24T07:18:44.658Z,39.42
2023-10-24T07:21:16.624Z,39.21
2023-10-24T07:23:44.386Z,39.34
2023-10-24T07:26:12.287Z,39.10
2023-10-24T07:28:39.695Z,39.26
2023-10-24T07:31:07.411Z,38.90
2023-10-24T07:33:35.072Z,39.10
2023-10-24T07:36:06.803Z,39.16
2023-10-24T07:38:34.345Z,39.09
2023-10-24T07:41:02.872Z,39.70
2023-10-24T07:43:30.404Z,39.63
2023-10-24T07:46:00.328Z,39.68
2023-10-24T07:48:27.973Z,39.82
2023-10-24T07:50:59.581Z,39.58
2023-10-24T07:53:29.592Z,39.76
2023-10-24T07:55:57.373Z,39.56
2023-10-24T07:58:25.060Z,39.28
2023-10-24T08:00:52.515Z,39.49
2023-10-24T08:03:20.166Z,39.31
2023-10-24T08:05:47.727Z,39.92
2023-10-24T08:08:16.106Z,39.99
2023-10-24T08:10:43.836Z,38.76
2023-10-24T08:13:11.267Z,38.53
2023-10-24T08:15:40.106Z,38.46
2023-10-24T08:18:07.672Z,38.70
2023-10-24T08:21:02.258Z,39.09
2023-10-24T08:23:30.081Z,38.94
2023-10-24T08:26:01.131Z,38.84
2023-10-24T08:28:28.783Z,38.70
2023-10-24T08:30:56.271Z,38.90
2023-10-24T08:33:26.746Z,39.14
2023-10-24T08:35:54.115Z,39.73
2023-10-24T08:38:22.812Z,39.71
2023-10-24T08:40:52.939Z,38.99
2023-10-24T08:43:21.879Z,39.60
2023-10-24T08:45:54.163Z,39.85
2023-10-24T08:48:25.087Z,40.25
2023-10-24T08:50:52.678Z,39.08
2023-10-24T08:53:20.199Z,39.64
2023-10-24T08:55:54.654Z,39.12
2023-10-24T08:58:26.198Z,38.57
2023-10-24T09:00:56.033Z,38.24
2023-10-24T09:03:24.228Z,38.30
2023-10-24T09:05:53.379Z,38.01
2023-10-24T09:08:23.188Z,38.22
2023-10-24T09:10:51.115Z,38.05
2023-10-24T09:13:21.279Z,38.10
2023-10-24T09:20:24.979Z,38.44
2023-10-24T09:22:53.562Z,38.41
2023-10-24T09:25:24.055Z,38.54
2023-10-24T09:27:51.710Z,38.49
2023-10-24T09:30:19.259Z,38.47
2023-10-24T09:32:47.285Z,38.65
2023-10-24T09:35:15.135Z,39.06
2023-10-24T09:37:49.510Z,39.14
2023-10-24T09:40:19.347Z,38.54
2023-10-24T09:42:48.225Z,37.99
2023-10-24T09:45:18.220Z,38.29
2023-10-24T09:47:48.038Z,38.54
2023-10-24T09:50:16.392Z,38.98
2023-10-24T09:52:45.221Z,38.40
2023-10-24T09:55:14.504Z,38.15
2023-10-24T09:57:45.533Z,38.41
2023-10-24T10:00:16.155Z,38.02
2023-10-24T10:02:48.158Z,38.08
2023-10-24T10:05:16.608Z,38.09
2023-10-24T10:07:50.058Z,37.84
2023-10-24T10:10:18.005Z,38.08
2023-10-24T10:12:47.475Z,38.45
2023-10-24T10:15:45.773Z,38.09
2023-10-24T10:18:19.199Z,37.99
2023-10-24T10:20:56.440Z,37.87
2023-10-24T10:23:38.400Z,37.94
2023-10-24T10:26:09.616Z,37.42
2023-10-24T10:28:43.252Z,37.69
2023-10-24T10:32:40.241Z,37.86
2023-10-24T10:34:37.568Z,37.53
2023-10-24T10:37:06.796Z,38.36
2023-10-24T10:39:34.375Z,37.70
2023-10-24T10:42:01.898Z,39.34
2023-10-24T10:44:44.545Z,40.15
2023-10-24T10:47:16.907Z,40.39
2023-10-24T10:49:55.176Z,40.53
2023-10-24T10:52:37.713Z,38.64
2023-10-24T10:55:56.415Z,37.20
2023-10-24T10:58:30.508Z,38.34
2023-10-24T11:01:22.457Z,44.83
2023-10-24T11:03:50.749Z,42.85
2023-10-24T11:06:21.095Z,44.34
2023-10-24T11:09:06.896Z,44.74
2023-10-24T11:11:34.903Z,44.37
2023-10-24T11:14:18.910Z,44.09
2023-10-24T11:16:50.886Z,44.35
2023-10-24T11:19:24.186Z,43.52
2023-10-24T11:21:54.303Z,42.82
2023-10-24T11:24:23.791Z,42.61
2023-10-24T11:26:57.659Z,42.94
2023-10-24T11:29:25.807Z,42.80
2023-10-24T11:31:59.256Z,42.79
2023-10-24T11:34:28.001Z,43.12
2023-10-24T11:36:55.813Z,42.77
2023-10-24T11:39:23.341Z,43.49
2023-10-24T11:41:50.897Z,42.84
2023-10-24T11:44:19.166Z,43.44
2023-10-24T11:46:47.330Z,42.71
2023-10-24T11:49:19.618Z,42.27
2023-10-24T11:56:10.394Z,41.46
2023-10-24T11:58:37.835Z,41.32
2023-10-24T12:01:06.782Z,41.34
2023-10-24T12:03:48.123Z,41.00
2023-10-24T12:06:20.069Z,41.03
2023-10-24T12:08:56.860Z,42.33
2023-10-24T12:11:37.236Z,41.47
2023-10-24T12:14:09.555Z,41.82
2023-10-24T12:16:59.192Z,43.10
2023-10-24T12:19:28.249Z,42.33
2023-10-24T12:21:56.328Z,41.95
2023-10-24T12:24:33.135Z,42.69
2023-10-24T12:27:01.164Z,42.93
2023-10-24T12:29:28.774Z,42.83
2023-10-24T12:31:56.600Z,43.04
2023-10-24T12:34:24.414Z,42.84
2023-10-24T12:36:54.165Z,42.18
2023-10-24T12:39:22.814Z,42.45
2023-10-24T12:41:50.486Z,42.67
2023-10-24T12:44:19.092Z,43.00
2023-10-24T12:46:46.751Z,42.70
2023-10-24T12:49:14.845Z,42.67
2023-10-24T12:51:43.725Z,42.53
2023-10-24T12:54:11.382Z,42.59
2023-10-24T12:56:39.288Z,42.19
2023-10-24T12:59:07.048Z,42.44
2023-10-24T13:01:34.778Z,42.42
2023-10-24T13:04:02.599Z,42.44
2023-10-24T13:06:39.784Z,42.87
2023-10-24T13:09:09.604Z,43.56
2023-10-24T13:11:38.715Z,42.86
2023-10-24T13:14:06.215Z,42.00
2023-10-24T13:16:33.935Z,42.39
2023-10-24T13:19:01.302Z,40.84
2023-10-24T13:21:29.041Z,41.94
2023-10-24T13:23:56.611Z,42.32
2023-10-24T13:26:24.209Z,43.98
2023-10-24T13:28:51.582Z,44.16
2023-10-24T13:31:19.746Z,44.31
2023-10-24T13:34:26.911Z,44.53
2023-10-24T13:36:38.866Z,44.47
2023-10-24T13:39:07.737Z,44.60
2023-10-24T13:41:35.164Z,44.44
2023-10-24T13:44:02.790Z,44.58
2023-10-24T13:46:31.485Z,44.60
2023-10-24T13:48:59.150Z,44.72
2023-10-24T13:51:27.067Z,43.05
2023-10-24T13:53:58.231Z,42.64
2023-10-24T13:56:29.686Z,42.46
2023-10-24T13:58:57.256Z,42.46
2023-10-24T14:01:25.082Z,42.63
2023-10-24T14:03:52.920Z,42.83
2023-10-24T14:06:20.660Z,44.13
2023-10-24T14:08:48.523Z,44.73
2023-10-24T14:11:16.245Z,43.33
2023-10-24T14:13:44.542Z,42.71
2023-10-24T14:16:12.415Z,43.35
2023-10-24T14:18:40.195Z,43.37
2023-10-24T14:23:57.269Z,43.28
2023-10-24T14:26:25.199Z,43.27
2023-10-24T14:28:54.939Z,44.37
2023-10-24T14:31:22.760Z,44.07
2023-10-24T14:33:50.313Z,43.37
2023-10-24T14:36:18.247Z,43.28
2023-10-24T14:38:45.654Z,42.95
2023-10-24T14:41:13.204Z,43.17
2023-10-24T14:43:40.802Z,43.48
2023-10-24T14:46:08.492Z,43.25
2023-10-24T14:48:38.059Z,43.72
2023-10-24T14:51:06.210Z,43.84
2023-10-24T14:53:33.678Z,43.95
2023-10-24T14:56:01.066Z,43.07
2023-10-24T14:58:28.755Z,43.80
2023-10-24T15:00:57.139Z,43.56
2023-10-24T15:03:24.920Z,43.20
2023-10-24T15:05:52.456Z,43.70
2023-10-24T15:08:19.952Z,43.61
2023-10-24T15:10:47.684Z,43.87
2023-10-24T15:13:15.519Z,43.57
2023-10-24T15:15:44.752Z,43.36
2023-10-24T15:18:13.501Z,43.68
2023-10-24T15:20:41.422Z,43.80
2023-10-24T15:23:09.243Z,43.91
2023-10-24T15:25:38.915Z,44.13
2023-10-24T15:28:06.907Z,44.00
2023-10-24T15:30:37.162Z,43.95
2023-10-24T15:33:05.610Z,44.65
2023-10-24T15:35:35.206Z,44.42
2023-10-24T15:38:02.792Z,44.31
2023-10-24T15:40:30.242Z,44.31
2023-10-24T15:42:58.339Z,44.36
2023-10-24T15:45:30.761Z,44.10
2023-10-24T15:47:58.593Z,44.22
2023-10-24T15:50:27.262Z,44.16
2023-10-24T15:52:55.077Z,44.57
2023-10-24T15:55:27.746Z,44.40
2023-10-24T15:57:58.644Z,44.75
2023-10-24T16:00:30.825Z,44.75
2023-10-24T16:02:58.658Z,44.26
2023-10-24T16:05:26.351Z,43.91
2023-10-24T16:07:53.973Z,43.34
2023-10-24T16:10:21.689Z,44.14
2023-10-24T16:12:49.326Z,44.25
2023-10-24T16:15:17.072Z,44.35
2023-10-24T16:17:53.046Z,44.52
2023-10-24T16:20:21.735Z,44.38
2023-10-24T16:22:50.119Z,44.37
2023-10-24T16:25:20.287Z,44.45
2023-10-24T16:27:48.017Z,44.49
2023-10-24T16:30:15.879Z,44.38
2023-10-24T16:32:46.066Z,44.36
2023-10-24T16:35:13.707Z,44.48
2023-10-24T16:37:41.347Z,44.24
2023-10-24T16:40:09.312Z,44.65
2023-10-24T16:42:37.284Z,44.34
2023-10-24T16:48:54.322Z,44.01
2023-10-24T16:51:24.099Z,43.60
2023-10-24T16:53:51.677Z,43.20
2023-10-24T16:56:19.343Z,44.15
2023-10-24T16:58:46.976Z,44.29
2023-10-24T17:01:14.763Z,44.66
2023-10-24T17:03:42.249Z,44.28
2023-10-24T17:06:10.046Z,44.30
2023-10-24T17:08:39.740Z,44.26
2023-10-24T17:11:11.057Z,44.24
2023-10-24T17:13:42.609Z,44.30
2023-10-24T17:16:10.438Z,44.25
2023-10-24T17:18:43.175Z,44.08
2023-10-24T17:21:11.824Z,44.20
2023-10-24T17:23:39.274Z,44.45
2023-10-24T17:26:26.898Z,44.21
2023-10-24T17:29:08.268Z,43.89
2023-10-24T17:31:44.752Z,44.45
2023-10-24T17:34:13.383Z,44.39
2023-10-24T17:36:40.929Z,43.82
2023-10-24T17:39:15.181Z,44.17
2023-10-24T17:41:42.751Z,43.39
2023-10-24T17:44:12.068Z,43.89
2023-10-24T17:46:42.157Z,42.68
2023-10-24T17:49:13.743Z,42.52
2023-10-24T17:51:45.461Z,43.65
2023-10-24T17:54:15.091Z,43.93
2023-10-24T17:56:46.513Z,43.01
2023-10-24T17:59:15.380Z,43.71
2023-10-24T18:01:43.880Z,43.96
2023-10-24T18:04:12.544Z,43.73
2023-10-24T18:06:40.522Z,44.45
2023-10-24T18:09:08.977Z,43.97
2023-10-24T18:11:36.271Z,43.80
2023-10-24T18:14:04.607Z,44.16
2023-10-24T18:16:33.081Z,43.44
2023-10-24T18:19:02.966Z,44.23
2023-10-24T18:21:33.041Z,44.02
2023-10-24T18:24:00.595Z,43.56
2023-10-24T18:26:28.271Z,42.95
2023-10-24T18:28:55.867Z,42.81
2023-10-24T18:31:25.773Z,43.45
2023-10-24T18:33:53.732Z,42.12
2023-10-24T18:36:21.194Z,43.76
2023-10-24T18:38:48.829Z,42.55
2023-10-24T18:41:18.039Z,43.30
2023-10-24T18:43:45.870Z,44.26
2023-10-24T18:46:13.905Z,44.05
2023-10-24T18:48:42.533Z,42.94
2023-10-24T18:51:12.137Z,43.40
2023-10-24T18:53:41.317Z,42.53
2023-10-24T18:56:09.874Z,43.63
2023-10-24T18:58:39.599Z,42.70
2023-10-24T19:01:11.060Z,43.56
2023-10-24T19:03:45.408Z,42.56
2023-10-24T19:06:13.919Z,42.64
2023-10-24T19:08:41.732Z,43.34
2023-10-24T19:11:11.887Z,43.22
2023-10-24T19:13:40.766Z,42.51
2023-10-24T19:16:09.138Z,42.61
2023-10-24T19:18:36.931Z,43.60
2023-10-24T19:21:07.227Z,42.93
2023-10-24T19:23:35.189Z,43.17
2023-10-24T19:26:08.634Z,43.36
2023-10-24T19:28:36.411Z,42.88
2023-10-24T19:31:04.252Z,43.44
2023-10-24T19:33:32.300Z,43.59
2023-10-24T19:36:06.409Z,43.31
2023-10-24T19:38:39.943Z,43.12
2023-10-24T19:41:08.002Z,42.49
2023-10-24T19:43:38.225Z,43.16
2023-10-24T19:46:09.191Z,43.24
2023-10-24T19:48:37.624Z,42.97
2023-10-24T19:51:06.487Z,42.35
2023-10-24T19:53:37.552Z,42.78
2023-10-24T19:56:06.838Z,42.47
2023-10-24T19:58:40.414Z,42.44
2023-10-24T20:01:12.158Z,43.66
2023-10-24T20:03:40.823Z,42.87
2023-10-24T20:06:12.078Z,42.27
2023-10-24T20:08:45.481Z,42.66
2023-10-24T20:12:35.253Z,42.64
2023-10-24T20:14:03.056Z,42.59
2023-10-24T20:16:34.884Z,42.92
2023-10-24T20:19:05.129Z,42.57
2023-10-24T20:21:34.138Z,42.36
2023-10-24T20:24:02.359Z,42.17
2023-10-24T20:26:31.062Z,42.49
2023-10-24T20:29:00.093Z,42.34
2023-10-24T20:31:27.837Z,42.41
2023-10-24T20:34:12.227Z,42.82
2023-10-24T20:36:49.906Z,42.47
2023-10-24T20:39:17.575Z,42.26
2023-10-24T20:41:45.687Z,42.36
2023-10-24T20:44:15.630Z,42.02
2023-10-24T20:46:43.114Z,42.65
2023-10-24T20:49:12.899Z,42.21
2023-10-24T20:51:40.548Z,42.26
2023-10-24T20:54:08.226Z,42.41
2023-10-24T20:56:35.692Z,42.31
2023-10-24T20:59:03.833Z,42.38
2023-10-24T21:01:31.347Z,42.35
2023-10-24T21:03:59.128Z,42.38
2023-10-24T21:06:26.701Z,41.69
2023-10-24T21:08:54.419Z,42.21
2023-10-24T21:11:21.931Z,42.18
2023-10-24T21:13:49.782Z,42.26
2023-10-24T21:16:17.545Z,43.03
2023-10-24T21:18:45.166Z,42.03
2023-10-24T21:21:13.980Z,42.06
2023-10-24T21:23:43.789Z,42.60
2023-10-24T21:26:11.164Z,42.04
2023-10-24T21:28:42.319Z,42.19
2023-10-24T21:31:10.103Z,41.95
2023-10-24T21:33:37.799Z,42.88
2023-10-24T21:36:06.276Z,41.96
2023-10-24T21:38:33.894Z,41.93
2023-10-24T21:41:01.663Z,42.24
2023-10-24T21:43:29.535Z,41.92
2023-10-24T21:46:11.070Z,41.71
2023-10-24T21:48:38.793Z,42.42
2023-10-24T21:51:06.952Z,42.01
2023-10-24T21:53:36.068Z,41.91
2023-10-24T21:56:06.927Z,41.98
2023-10-24T21:58:34.721Z,41.79
2023-10-24T22:01:04.059Z,41.75
2023-10-24T22:03:32.099Z,41.71
2023-10-24T22:05:59.771Z,42.02
2023-10-24T22:08:27.358Z,41.80
2023-10-24T22:10:54.882Z,42.87
2023-10-24T22:13:22.767Z,41.66
2023-10-24T22:15:50.416Z,42.03
2023-10-24T22:18:18.047Z,42.02
2023-10-24T22:20:45.558Z,41.96
2023-10-24T22:23:15.480Z,42.52
2023-10-24T22:25:42.907Z,42.56
2023-10-24T22:28:13.534Z,42.71
2023-10-24T22:30:40.998Z,42.15
2023-10-24T22:33:08.757Z,42.34
2023-10-24T22:35:36.462Z,41.73
2023-10-24T22:38:04.452Z,41.97
2023-10-24T22:40:31.878Z,42.43
2023-10-24T22:42:59.366Z,42.40
2023-10-24T22:45:27.456Z,43.17
2023-10-24T22:47:55.521Z,42.37
2023-10-24T22:50:23.041Z,42.73
2023-10-24T22:52:53.382Z,42.22
2023-10-24T22:55:20.907Z,42.23
2023-10-24T22:57:52.241Z,42.71
2023-10-24T23:00:19.994Z,42.51
2023-10-24T23:02:48.023Z,41.79
2023-10-24T23:05:16.629Z,41.97
2023-10-24T23:07:44.300Z,41.36
2023-10-24T23:10:12.078Z,41.74
2023-10-24T23:12:42.214Z,41.83
2023-10-24T23:15:10.222Z,42.22
2023-10-24T23:17:37.910Z,41.86
2023-10-24T23:20:06.079Z,41.60
2023-10-24T23:22:35.920Z,41.41
2023-10-24T23:25:03.532Z,41.82
2023-10-24T23:27:31.323Z,41.49
2023-10-24T23:29:59.080Z,42.04
2023-10-24T23:32:26.706Z,41.44
2023-10-24T23:34:56.398Z,41.46
2023-10-24T23:37:24.018Z,41.52
2023-10-24T23:39:51.752Z,41.40
2023-10-24T23:42:21.812Z,41.52
2023-10-24T23:44:51.454Z,42.17
2023-10-24T23:47:19.241Z,41.72
2023-10-24T23:49:46.800Z,41.82
2023-10-24T23:52:14.567Z,41.58
2023-10-24T23:54:42.034Z,41.91
2023-10-24T23:57:10.008Z,41.61
2023-10-24T23:59:40.965Z,41.92
